RYR5706 EIKY-ELLX
Flight info
| Callsign | RYR5706 |
|---|---|
| Flight time | 1h 46m |
| Altitude | 37000 |
| Route | CRK3D CRK DCT EVRIN DCT KONAN UL607 KOK DCT REMBA |
| Aircraft | B738/M-SDFGIJ1LRWY/SB1 |
Departure
| Time | 2026-05-04 12:51 |
|---|---|
| Airport | Kerry Airport (EIKY) |
Arrival
| Time | 2026-05-04 14:37 |
|---|---|
| Airport | Luxembourg-Findel International Airport (ELLX) |
| Time | Latitude | Longitude | Altitude | Speed | Heading |
|---|---|---|---|---|---|
| 2026-05-04 12:37 | 52.18103 | -9.53762 | 83 ft | 0 kts | 138° |
| 2026-05-04 12:48 | 52.18091 | -9.53745 | 82 ft | 5 kts | 138° |
| 2026-05-04 12:48 | 52.18070 | -9.53710 | 83 ft | 2 kts | 127° |
| 2026-05-04 12:48 | 52.18052 | -9.53671 | 84 ft | 10 kts | 127° |
| 2026-05-04 12:48 | 52.17989 | -9.53614 | 86 ft | 10 kts | 167° |
| 2026-05-04 12:49 | 52.17921 | -9.53584 | 86 ft | 9 kts | 161° |
| 2026-05-04 12:49 | 52.17859 | -9.53560 | 86 ft | 8 kts | 186° |
| 2026-05-04 12:49 | 52.17826 | -9.53624 | 86 ft | 7 kts | 248° |
| 2026-05-04 12:49 | 52.17800 | -9.53690 | 86 ft | 6 kts | 229° |
| 2026-05-04 12:50 | 52.17807 | -9.53701 | 86 ft | 1 kts | 47° |
| 2026-05-04 12:50 | 52.17810 | -9.53693 | 86 ft | 0 kts | 58° |
| 2026-05-04 12:50 | 52.17847 | -9.53528 | 86 ft | 48 kts | 71° |
| 2026-05-04 12:51 | 52.18032 | -9.52649 | 96 ft | 114 kts | 71° |
| 2026-05-04 12:51 | 52.18341 | -9.51173 | 247 ft | 150 kts | 70° |
| 2026-05-04 12:51 | 52.18670 | -9.49621 | 914 ft | 144 kts | 69° |
| 2026-05-04 12:51 | 52.18999 | -9.48061 | 1163 ft | 152 kts | 69° |
| 2026-05-04 12:52 | 52.19350 | -9.46368 | 1307 ft | 167 kts | 69° |
| 2026-05-04 12:52 | 52.19740 | -9.44471 | 1522 ft | 180 kts | 69° |
| 2026-05-04 12:52 | 52.20153 | -9.42409 | 1689 ft | 200 kts | 69° |
| 2026-05-04 12:52 | 52.20599 | -9.40167 | 1949 ft | 218 kts | 69° |
| 2026-05-04 12:53 | 52.21086 | -9.37725 | 2304 ft | 231 kts | 70° |
| 2026-05-04 12:53 | 52.21402 | -9.35083 | 2633 ft | 247 kts | 89° |
| 2026-05-04 12:53 | 52.20929 | -9.32331 | 3087 ft | 260 kts | 118° |
| 2026-05-04 12:53 | 52.19805 | -9.29941 | 3832 ft | 267 kts | 128° |
| 2026-05-04 12:54 | 52.18612 | -9.27613 | 4297 ft | 267 kts | 127° |
| 2026-05-04 12:54 | 52.17469 | -9.25239 | 4457 ft | 268 kts | 124° |
| 2026-05-04 12:54 | 52.16374 | -9.22761 | 4455 ft | 265 kts | 123° |
| 2026-05-04 12:54 | 52.15323 | -9.20303 | 4453 ft | 265 kts | 122° |
| 2026-05-04 12:55 | 52.14260 | -9.17822 | 4453 ft | 265 kts | 122° |
| 2026-05-04 12:55 | 52.13203 | -9.15369 | 4449 ft | 266 kts | 123° |
| 2026-05-04 12:55 | 52.12132 | -9.12896 | 4445 ft | 265 kts | 123° |
| 2026-05-04 12:55 | 52.11061 | -9.10449 | 4445 ft | 266 kts | 123° |
| 2026-05-04 12:56 | 52.09978 | -9.07990 | 4440 ft | 265 kts | 123° |
| 2026-05-04 12:56 | 52.08903 | -9.05548 | 4438 ft | 265 kts | 123° |
| 2026-05-04 12:56 | 52.07832 | -9.03107 | 4436 ft | 265 kts | 123° |
| 2026-05-04 12:56 | 52.06761 | -9.00660 | 4436 ft | 264 kts | 123° |
| 2026-05-04 12:57 | 52.05692 | -8.98212 | 4432 ft | 265 kts | 123° |
| 2026-05-04 12:57 | 52.04623 | -8.95774 | 4434 ft | 264 kts | 123° |
| 2026-05-04 12:57 | 52.03553 | -8.93342 | 4430 ft | 265 kts | 123° |
| 2026-05-04 12:57 | 52.02468 | -8.90892 | 4430 ft | 265 kts | 123° |
| 2026-05-04 12:58 | 52.01393 | -8.88458 | 4429 ft | 265 kts | 123° |
| 2026-05-04 12:58 | 52.00312 | -8.86012 | 4431 ft | 265 kts | 123° |
| 2026-05-04 12:58 | 51.99233 | -8.83557 | 4427 ft | 265 kts | 123° |
| 2026-05-04 12:58 | 51.98173 | -8.81143 | 4428 ft | 266 kts | 122° |
| 2026-05-04 12:59 | 51.97074 | -8.78640 | 4604 ft | 280 kts | 123° |
| 2026-05-04 12:59 | 51.95903 | -8.75978 | 4900 ft | 298 kts | 123° |
| 2026-05-04 12:59 | 51.94671 | -8.73198 | 5164 ft | 304 kts | 123° |
| 2026-05-04 12:59 | 51.93437 | -8.70427 | 5437 ft | 304 kts | 123° |
| 2026-05-04 13:00 | 51.92183 | -8.67603 | 5712 ft | 306 kts | 123° |
| 2026-05-04 13:00 | 51.90938 | -8.64798 | 5981 ft | 307 kts | 123° |
| 2026-05-04 13:00 | 51.89692 | -8.61993 | 6258 ft | 308 kts | 123° |
| 2026-05-04 13:00 | 51.88439 | -8.59179 | 6519 ft | 309 kts | 123° |
| 2026-05-04 13:01 | 51.87159 | -8.56309 | 6794 ft | 311 kts | 123° |
| 2026-05-04 13:01 | 51.85893 | -8.53472 | 7066 ft | 312 kts | 123° |
| 2026-05-04 13:01 | 51.84691 | -8.50567 | 7336 ft | 313 kts | 116° |
| 2026-05-04 13:01 | 51.83928 | -8.47288 | 7608 ft | 310 kts | 97° |
| 2026-05-04 13:02 | 51.83747 | -8.43816 | 7892 ft | 309 kts | 89° |
| 2026-05-04 13:02 | 51.83742 | -8.40320 | 8165 ft | 310 kts | 87° |
| 2026-05-04 13:02 | 51.83752 | -8.36819 | 8449 ft | 311 kts | 88° |
| 2026-05-04 13:02 | 51.83727 | -8.33309 | 8719 ft | 312 kts | 90° |
| 2026-05-04 13:03 | 51.83667 | -8.29781 | 9014 ft | 313 kts | 90° |
| 2026-05-04 13:03 | 51.83588 | -8.26277 | 9283 ft | 315 kts | 91° |
| 2026-05-04 13:03 | 51.83498 | -8.22699 | 9548 ft | 317 kts | 91° |
| 2026-05-04 13:03 | 51.83406 | -8.19149 | 9823 ft | 317 kts | 91° |
| 2026-05-04 13:04 | 51.83313 | -8.15559 | 10115 ft | 319 kts | 91° |
| 2026-05-04 13:04 | 51.83218 | -8.11982 | 10397 ft | 320 kts | 91° |
| 2026-05-04 13:04 | 51.83123 | -8.08362 | 10672 ft | 322 kts | 91° |
| 2026-05-04 13:04 | 51.83026 | -8.04748 | 10937 ft | 322 kts | 91° |
| 2026-05-04 13:05 | 51.82930 | -8.01144 | 11211 ft | 322 kts | 90° |
| 2026-05-04 13:05 | 51.82831 | -7.97476 | 11502 ft | 324 kts | 91° |
| 2026-05-04 13:05 | 51.82729 | -7.93826 | 11782 ft | 324 kts | 91° |
| 2026-05-04 13:05 | 51.82629 | -7.90218 | 12059 ft | 326 kts | 91° |
| 2026-05-04 13:06 | 51.82525 | -7.86534 | 12332 ft | 327 kts | 90° |
| 2026-05-04 13:06 | 51.82421 | -7.82837 | 12610 ft | 328 kts | 91° |
| 2026-05-04 13:06 | 51.82317 | -7.79171 | 12884 ft | 329 kts | 90° |
| 2026-05-04 13:06 | 51.82209 | -7.75418 | 13165 ft | 331 kts | 90° |
| 2026-05-04 13:07 | 51.82102 | -7.71713 | 13433 ft | 331 kts | 90° |
| 2026-05-04 13:07 | 51.81994 | -7.68007 | 13703 ft | 331 kts | 90° |
| 2026-05-04 13:07 | 51.81886 | -7.64288 | 13984 ft | 333 kts | 90° |
| 2026-05-04 13:07 | 51.81776 | -7.60537 | 14263 ft | 332 kts | 90° |
| 2026-05-04 13:08 | 51.81664 | -7.56780 | 14533 ft | 334 kts | 90° |
| 2026-05-04 13:08 | 51.81552 | -7.53033 | 14822 ft | 335 kts | 90° |
| 2026-05-04 13:08 | 51.81437 | -7.49219 | 15108 ft | 337 kts | 90° |
| 2026-05-04 13:08 | 51.81322 | -7.45424 | 15379 ft | 337 kts | 90° |
| 2026-05-04 13:09 | 51.81206 | -7.41653 | 15649 ft | 339 kts | 90° |
| 2026-05-04 13:09 | 51.81088 | -7.37860 | 15933 ft | 340 kts | 90° |
| 2026-05-04 13:09 | 51.80968 | -7.34028 | 16212 ft | 342 kts | 91° |
| 2026-05-04 13:09 | 51.80845 | -7.30172 | 16481 ft | 344 kts | 91° |
| 2026-05-04 13:10 | 51.80720 | -7.26275 | 16772 ft | 344 kts | 91° |
| 2026-05-04 13:10 | 51.80595 | -7.22429 | 17059 ft | 344 kts | 91° |
| 2026-05-04 13:10 | 51.80510 | -7.19861 | 17243 ft | 344 kts | 91° |
| 2026-05-04 13:10 | 51.80339 | -7.14698 | 17618 ft | 347 kts | 91° |
| 2026-05-04 13:11 | 51.80209 | -7.10815 | 17895 ft | 348 kts | 91° |
| 2026-05-04 13:11 | 51.80076 | -7.06850 | 18174 ft | 349 kts | 91° |
| 2026-05-04 13:11 | 51.79942 | -7.02941 | 18461 ft | 351 kts | 91° |
| 2026-05-04 13:11 | 51.79805 | -6.98968 | 18745 ft | 353 kts | 91° |
| 2026-05-04 13:12 | 51.79667 | -6.95008 | 19026 ft | 352 kts | 91° |
| 2026-05-04 13:12 | 51.79529 | -6.91054 | 19304 ft | 355 kts | 91° |
| 2026-05-04 13:12 | 51.79388 | -6.87072 | 19584 ft | 355 kts | 91° |
| 2026-05-04 13:12 | 51.79246 | -6.83117 | 19870 ft | 355 kts | 91° |
| 2026-05-04 13:13 | 51.79102 | -6.79146 | 20149 ft | 355 kts | 91° |
| 2026-05-04 13:13 | 51.78954 | -6.75146 | 20423 ft | 355 kts | 91° |
| 2026-05-04 13:13 | 51.78805 | -6.71160 | 20709 ft | 356 kts | 91° |
| 2026-05-04 13:13 | 51.78656 | -6.67157 | 20987 ft | 358 kts | 91° |
| 2026-05-04 13:14 | 51.78503 | -6.63124 | 21279 ft | 358 kts | 91° |
| 2026-05-04 13:14 | 51.78350 | -6.59109 | 21559 ft | 360 kts | 91° |
| 2026-05-04 13:14 | 51.78194 | -6.55095 | 21834 ft | 361 kts | 91° |
| 2026-05-04 13:14 | 51.78034 | -6.51027 | 22119 ft | 362 kts | 91° |
| 2026-05-04 13:15 | 51.77871 | -6.46946 | 22406 ft | 364 kts | 91° |
| 2026-05-04 13:15 | 51.77708 | -6.42887 | 22692 ft | 364 kts | 91° |
| 2026-05-04 13:15 | 51.77541 | -6.38764 | 22977 ft | 366 kts | 91° |
| 2026-05-04 13:15 | 51.77374 | -6.34661 | 23265 ft | 367 kts | 92° |
| 2026-05-04 13:16 | 51.77205 | -6.30546 | 23556 ft | 368 kts | 92° |
| 2026-05-04 13:16 | 51.77035 | -6.26410 | 23844 ft | 371 kts | 92° |
| 2026-05-04 13:16 | 51.76862 | -6.22248 | 24129 ft | 371 kts | 92° |
| 2026-05-04 13:16 | 51.76687 | -6.18075 | 24412 ft | 374 kts | 92° |
| 2026-05-04 13:17 | 51.76509 | -6.13870 | 24692 ft | 374 kts | 92° |
| 2026-05-04 13:17 | 51.76329 | -6.09682 | 24977 ft | 375 kts | 92° |
| 2026-05-04 13:17 | 51.76147 | -6.05448 | 25278 ft | 377 kts | 92° |
| 2026-05-04 13:17 | 51.75963 | -6.01233 | 25560 ft | 380 kts | 92° |
| 2026-05-04 13:18 | 51.75775 | -5.96935 | 25848 ft | 380 kts | 92° |
| 2026-05-04 13:18 | 51.75587 | -5.92656 | 26134 ft | 381 kts | 92° |
| 2026-05-04 13:18 | 51.75397 | -5.88379 | 26421 ft | 383 kts | 92° |
| 2026-05-04 13:18 | 51.75203 | -5.84063 | 26702 ft | 383 kts | 92° |
| 2026-05-04 13:19 | 51.75010 | -5.79793 | 26985 ft | 383 kts | 92° |
| 2026-05-04 13:19 | 51.74814 | -5.75508 | 27270 ft | 386 kts | 92° |
| 2026-05-04 13:19 | 51.74614 | -5.71159 | 27557 ft | 389 kts | 92° |
| 2026-05-04 13:19 | 51.74411 | -5.66780 | 27844 ft | 390 kts | 92° |
| 2026-05-04 13:20 | 51.74205 | -5.62391 | 28133 ft | 391 kts | 92° |
| 2026-05-04 13:20 | 51.74000 | -5.58041 | 28418 ft | 393 kts | 92° |
| 2026-05-04 13:20 | 51.73790 | -5.53625 | 28705 ft | 395 kts | 92° |
| 2026-05-04 13:20 | 51.73577 | -5.49171 | 28994 ft | 396 kts | 92° |
| 2026-05-04 13:21 | 51.73361 | -5.44717 | 29284 ft | 397 kts | 92° |
| 2026-05-04 13:21 | 51.73144 | -5.40264 | 29572 ft | 399 kts | 92° |
| 2026-05-04 13:21 | 51.72926 | -5.35792 | 29861 ft | 401 kts | 92° |
| 2026-05-04 13:21 | 51.72705 | -5.31318 | 30148 ft | 403 kts | 93° |
| 2026-05-04 13:22 | 51.72481 | -5.26797 | 30436 ft | 406 kts | 93° |
| 2026-05-04 13:22 | 51.72254 | -5.22282 | 30722 ft | 406 kts | 93° |
| 2026-05-04 13:22 | 51.72024 | -5.17738 | 30985 ft | 407 kts | 93° |
| 2026-05-04 13:22 | 51.71790 | -5.13135 | 31248 ft | 409 kts | 94° |
| 2026-05-04 13:23 | 51.71554 | -5.08557 | 31508 ft | 409 kts | 93° |
| 2026-05-04 13:23 | 51.71317 | -5.04001 | 31766 ft | 407 kts | 93° |
| 2026-05-04 13:23 | 51.71081 | -4.99474 | 32023 ft | 407 kts | 94° |
| 2026-05-04 13:23 | 51.70839 | -4.94883 | 32286 ft | 408 kts | 94° |
| 2026-05-04 13:24 | 51.70600 | -4.90360 | 32545 ft | 409 kts | 94° |
| 2026-05-04 13:24 | 51.70358 | -4.85795 | 32806 ft | 411 kts | 94° |
| 2026-05-04 13:24 | 51.70111 | -4.81211 | 33065 ft | 411 kts | 94° |
| 2026-05-04 13:25 | 51.69611 | -4.72029 | 33584 ft | 409 kts | 94° |
| 2026-05-04 13:25 | 51.69360 | -4.67450 | 33843 ft | 410 kts | 94° |
| 2026-05-04 13:25 | 51.69106 | -4.62854 | 34100 ft | 410 kts | 94° |
| 2026-05-04 13:25 | 51.68854 | -4.58330 | 34342 ft | 410 kts | 94° |
| 2026-05-04 13:26 | 51.68594 | -4.53709 | 34577 ft | 410 kts | 94° |
| 2026-05-04 13:26 | 51.68335 | -4.49119 | 34812 ft | 410 kts | 94° |
| 2026-05-04 13:26 | 51.68074 | -4.44532 | 35050 ft | 410 kts | 94° |
| 2026-05-04 13:26 | 51.67813 | -4.39974 | 35283 ft | 409 kts | 94° |
| 2026-05-04 13:27 | 51.67552 | -4.35451 | 35512 ft | 409 kts | 94° |
| 2026-05-04 13:27 | 51.67284 | -4.30855 | 35746 ft | 408 kts | 95° |
| 2026-05-04 13:27 | 51.67018 | -4.26316 | 35977 ft | 407 kts | 95° |
| 2026-05-04 13:27 | 51.66753 | -4.21805 | 36206 ft | 405 kts | 95° |
| 2026-05-04 13:28 | 51.66486 | -4.17285 | 36430 ft | 404 kts | 95° |
| 2026-05-04 13:28 | 51.66218 | -4.12790 | 36644 ft | 403 kts | 95° |
| 2026-05-04 13:28 | 51.65951 | -4.08333 | 36845 ft | 402 kts | 95° |
| 2026-05-04 13:28 | 51.65682 | -4.03862 | 36988 ft | 401 kts | 95° |
| 2026-05-04 13:29 | 51.65127 | -3.94771 | 36999 ft | 409 kts | 95° |
| 2026-05-04 13:29 | 51.64559 | -3.85569 | 37002 ft | 418 kts | 95° |
| 2026-05-04 13:30 | 51.63974 | -3.76203 | 37001 ft | 427 kts | 95° |
| 2026-05-04 13:30 | 51.63361 | -3.66551 | 37007 ft | 435 kts | 96° |
| 2026-05-04 13:31 | 51.62734 | -3.56798 | 37001 ft | 435 kts | 96° |
| 2026-05-04 13:31 | 51.62106 | -3.47155 | 37000 ft | 435 kts | 96° |
| 2026-05-04 13:32 | 51.61468 | -3.37476 | 37012 ft | 436 kts | 96° |
| 2026-05-04 13:32 | 51.60821 | -3.27786 | 37015 ft | 435 kts | 96° |
| 2026-05-04 13:33 | 51.60163 | -3.18059 | 37010 ft | 436 kts | 97° |
| 2026-05-04 13:33 | 51.59499 | -3.08356 | 37008 ft | 437 kts | 97° |
| 2026-05-04 13:34 | 51.58826 | -2.98656 | 37010 ft | 437 kts | 97° |
| 2026-05-04 13:34 | 51.58144 | -2.88924 | 37011 ft | 437 kts | 97° |
| 2026-05-04 13:35 | 51.57106 | -2.74360 | 37002 ft | 438 kts | 97° |
| 2026-05-04 13:36 | 51.56400 | -2.64589 | 37004 ft | 438 kts | 97° |
| 2026-05-04 13:36 | 51.55690 | -2.54884 | 37009 ft | 439 kts | 97° |
| 2026-05-04 13:37 | 51.54970 | -2.45154 | 37004 ft | 439 kts | 97° |
| 2026-05-04 13:37 | 51.54242 | -2.35426 | 37007 ft | 439 kts | 97° |
| 2026-05-04 13:38 | 51.53506 | -2.25704 | 37007 ft | 440 kts | 97° |
| 2026-05-04 13:38 | 51.52758 | -2.15927 | 37004 ft | 440 kts | 98° |
| 2026-05-04 13:39 | 51.52003 | -2.06168 | 37004 ft | 441 kts | 98° |
| 2026-05-04 13:39 | 51.51236 | -1.96361 | 37007 ft | 442 kts | 98° |
| 2026-05-04 13:40 | 51.50465 | -1.86618 | 37002 ft | 442 kts | 98° |
| 2026-05-04 13:40 | 51.49683 | -1.76846 | 37007 ft | 442 kts | 98° |
| 2026-05-04 13:41 | 51.48892 | -1.67066 | 37009 ft | 442 kts | 98° |
| 2026-05-04 13:41 | 51.48089 | -1.57236 | 37002 ft | 443 kts | 98° |
| 2026-05-04 13:42 | 51.46877 | -1.42597 | 37004 ft | 443 kts | 98° |
| 2026-05-04 13:42 | 51.46056 | -1.32805 | 37005 ft | 443 kts | 99° |
| 2026-05-04 13:43 | 51.45229 | -1.23038 | 37001 ft | 443 kts | 99° |
| 2026-05-04 13:43 | 51.44388 | -1.13211 | 37002 ft | 443 kts | 99° |
| 2026-05-04 13:44 | 51.43540 | -1.03405 | 37006 ft | 445 kts | 99° |
| 2026-05-04 13:44 | 51.42681 | -0.93570 | 37004 ft | 446 kts | 99° |
| 2026-05-04 13:45 | 51.41814 | -0.83730 | 37009 ft | 445 kts | 99° |
| 2026-05-04 13:45 | 51.40938 | -0.73890 | 37004 ft | 445 kts | 99° |
| 2026-05-04 13:46 | 51.40058 | -0.64111 | 37006 ft | 445 kts | 99° |
| 2026-05-04 13:46 | 51.39163 | -0.54262 | 37006 ft | 445 kts | 99° |
| 2026-05-04 13:47 | 51.38267 | -0.44488 | 37001 ft | 446 kts | 99° |
| 2026-05-04 13:47 | 51.37358 | -0.34655 | 37008 ft | 446 kts | 101° |
| 2026-05-04 13:48 | 51.36444 | -0.24864 | 36794 ft | 444 kts | 101° |
| 2026-05-04 13:48 | 51.35980 | -0.19936 | 36989 ft | 444 kts | 101° |
| 2026-05-04 13:48 | 51.35522 | -0.15092 | 36985 ft | 447 kts | 101° |
| 2026-05-04 13:49 | 51.34579 | -0.05191 | 37003 ft | 449 kts | 101° |
| 2026-05-04 13:49 | 51.33630 | 0.04696 | 36998 ft | 449 kts | 101° |
| 2026-05-04 13:50 | 51.32677 | 0.14527 | 36994 ft | 450 kts | 101° |
| 2026-05-04 13:50 | 51.31713 | 0.24387 | 36992 ft | 449 kts | 101° |
| 2026-05-04 13:51 | 51.30742 | 0.34231 | 36990 ft | 450 kts | 101° |
| 2026-05-04 13:51 | 51.29755 | 0.44136 | 36984 ft | 450 kts | 101° |
| 2026-05-04 13:52 | 51.28265 | 0.58937 | 36984 ft | 450 kts | 101° |
| 2026-05-04 13:53 | 51.27266 | 0.68752 | 36979 ft | 450 kts | 102° |
| 2026-05-04 13:53 | 51.26259 | 0.78564 | 36983 ft | 450 kts | 102° |
| 2026-05-04 13:54 | 51.24722 | 0.93374 | 36982 ft | 451 kts | 102° |
| 2026-05-04 13:55 | 51.23169 | 1.08143 | 36976 ft | 450 kts | 102° |
| 2026-05-04 13:55 | 51.21592 | 1.22968 | 36976 ft | 451 kts | 102° |
| 2026-05-04 13:56 | 51.20536 | 1.32788 | 36975 ft | 451 kts | 102° |
| 2026-05-04 13:57 | 51.18925 | 1.47601 | 36974 ft | 452 kts | 102° |
| 2026-05-04 13:58 | 51.16757 | 1.67273 | 36972 ft | 452 kts | 103° |
| 2026-05-04 13:58 | 51.15100 | 1.82089 | 36972 ft | 452 kts | 103° |
| 2026-05-04 13:59 | 51.13992 | 1.91910 | 36982 ft | 452 kts | 103° |
| 2026-05-04 14:00 | 51.12636 | 2.06777 | 36976 ft | 454 kts | 98° |
| 2026-05-04 14:00 | 51.11833 | 2.21839 | 36977 ft | 455 kts | 97° |
| 2026-05-04 14:01 | 51.11322 | 2.31833 | 36972 ft | 454 kts | 97° |
| 2026-05-04 14:02 | 51.10510 | 2.46868 | 36965 ft | 455 kts | 97° |
| 2026-05-04 14:02 | 51.09942 | 2.56945 | 36966 ft | 456 kts | 97° |
| 2026-05-04 14:03 | 51.09112 | 2.66888 | 36969 ft | 453 kts | 105° |
| 2026-05-04 14:03 | 51.07579 | 2.76567 | 36963 ft | 452 kts | 109° |
| 2026-05-04 14:04 | 51.04901 | 2.90911 | 36968 ft | 452 kts | 110° |
| 2026-05-04 14:04 | 51.03095 | 3.00499 | 36962 ft | 452 kts | 110° |
| 2026-05-04 14:05 | 51.00424 | 3.14822 | 36949 ft | 452 kts | 110° |
| 2026-05-04 14:06 | 50.98648 | 3.24368 | 36948 ft | 451 kts | 109° |
| 2026-05-04 14:06 | 50.96867 | 3.33921 | 36944 ft | 451 kts | 109° |
| 2026-05-04 14:07 | 50.95083 | 3.43452 | 36944 ft | 451 kts | 109° |
| 2026-05-04 14:07 | 50.93283 | 3.53015 | 36937 ft | 451 kts | 110° |
| 2026-05-04 14:08 | 50.91488 | 3.62508 | 36936 ft | 451 kts | 110° |
| 2026-05-04 14:08 | 50.89676 | 3.72047 | 36936 ft | 451 kts | 110° |
| 2026-05-04 14:09 | 50.86953 | 3.86285 | 36935 ft | 452 kts | 111° |
| 2026-05-04 14:10 | 50.84200 | 4.00574 | 36936 ft | 452 kts | 111° |
| 2026-05-04 14:10 | 50.82364 | 4.10052 | 36936 ft | 451 kts | 111° |
| 2026-05-04 14:11 | 50.80515 | 4.19543 | 36943 ft | 451 kts | 111° |
| 2026-05-04 14:11 | 50.77724 | 4.33777 | 36951 ft | 452 kts | 111° |
| 2026-05-04 14:12 | 50.75861 | 4.43214 | 36653 ft | 453 kts | 111° |
| 2026-05-04 14:12 | 50.74007 | 4.52595 | 36151 ft | 437 kts | 111° |
| 2026-05-04 14:13 | 50.73110 | 4.57130 | 35896 ft | 431 kts | 112° |
| 2026-05-04 14:13 | 50.72213 | 4.61639 | 35499 ft | 428 kts | 112° |
| 2026-05-04 14:13 | 50.71333 | 4.66054 | 35153 ft | 424 kts | 113° |
| 2026-05-04 14:13 | 50.70456 | 4.70439 | 34790 ft | 420 kts | 114° |
| 2026-05-04 14:14 | 50.69569 | 4.74854 | 34277 ft | 418 kts | 114° |
| 2026-05-04 14:14 | 50.67836 | 4.83446 | 33407 ft | 409 kts | 114° |
| 2026-05-04 14:14 | 50.66880 | 4.87675 | 32929 ft | 403 kts | 118° |
| 2026-05-04 14:15 | 50.64016 | 4.94914 | 32001 ft | 383 kts | 137° |
| 2026-05-04 14:15 | 50.60347 | 5.00819 | 31060 ft | 374 kts | 141° |
| 2026-05-04 14:16 | 50.56595 | 5.06476 | 30104 ft | 368 kts | 141° |
| 2026-05-04 14:16 | 50.54762 | 5.09253 | 29598 ft | 366 kts | 141° |
| 2026-05-04 14:17 | 50.51115 | 5.14813 | 27979 ft | 362 kts | 140° |
| 2026-05-04 14:17 | 50.49333 | 5.17549 | 27214 ft | 359 kts | 140° |
| 2026-05-04 14:17 | 50.45826 | 5.22935 | 25678 ft | 353 kts | 140° |
| 2026-05-04 14:18 | 50.44074 | 5.25623 | 24903 ft | 350 kts | 139° |
| 2026-05-04 14:18 | 50.40615 | 5.30921 | 23619 ft | 343 kts | 139° |
| 2026-05-04 14:19 | 50.37231 | 5.36087 | 22724 ft | 338 kts | 139° |
| 2026-05-04 14:19 | 50.35562 | 5.38638 | 22260 ft | 337 kts | 139° |
| 2026-05-04 14:19 | 50.33896 | 5.41180 | 21784 ft | 336 kts | 139° |
| 2026-05-04 14:19 | 50.32215 | 5.43741 | 21370 ft | 333 kts | 138° |
| 2026-05-04 14:20 | 50.30561 | 5.46260 | 20955 ft | 331 kts | 138° |
| 2026-05-04 14:20 | 50.28923 | 5.48753 | 20536 ft | 329 kts | 138° |
| 2026-05-04 14:20 | 50.27287 | 5.51236 | 20169 ft | 325 kts | 138° |
| 2026-05-04 14:21 | 50.24046 | 5.56173 | 19327 ft | 321 kts | 138° |
| 2026-05-04 14:21 | 50.22453 | 5.58582 | 18895 ft | 320 kts | 138° |
| 2026-05-04 14:21 | 50.20847 | 5.61005 | 18470 ft | 319 kts | 138° |
| 2026-05-04 14:21 | 50.19260 | 5.63401 | 18050 ft | 318 kts | 137° |
| 2026-05-04 14:22 | 50.17674 | 5.65797 | 17677 ft | 315 kts | 138° |
| 2026-05-04 14:22 | 50.16111 | 5.68156 | 17323 ft | 312 kts | 139° |
| 2026-05-04 14:22 | 50.14547 | 5.70515 | 16953 ft | 309 kts | 138° |
| 2026-05-04 14:22 | 50.12998 | 5.72849 | 16582 ft | 306 kts | 138° |
| 2026-05-04 14:23 | 50.09952 | 5.77427 | 15868 ft | 300 kts | 138° |
| 2026-05-04 14:23 | 50.08459 | 5.79659 | 15861 ft | 298 kts | 139° |
| 2026-05-04 14:23 | 50.06947 | 5.81888 | 15856 ft | 303 kts | 139° |
| 2026-05-04 14:24 | 50.05396 | 5.84164 | 15854 ft | 303 kts | 139° |
| 2026-05-04 14:24 | 50.03859 | 5.86417 | 15861 ft | 303 kts | 140° |
| 2026-05-04 14:24 | 50.02321 | 5.88676 | 15855 ft | 304 kts | 139° |
| 2026-05-04 14:24 | 50.00797 | 5.90938 | 15718 ft | 300 kts | 139° |
| 2026-05-04 14:25 | 49.99274 | 5.93190 | 15142 ft | 309 kts | 139° |
| 2026-05-04 14:25 | 49.96218 | 5.97729 | 14555 ft | 298 kts | 139° |
| 2026-05-04 14:25 | 49.94714 | 5.99938 | 14146 ft | 296 kts | 142° |
| 2026-05-04 14:26 | 49.93070 | 6.01796 | 13755 ft | 292 kts | 150° |
| 2026-05-04 14:26 | 49.91323 | 6.03416 | 13405 ft | 289 kts | 152° |
| 2026-05-04 14:26 | 49.89578 | 6.04958 | 13033 ft | 287 kts | 153° |
| 2026-05-04 14:26 | 49.87859 | 6.06468 | 12697 ft | 284 kts | 153° |
| 2026-05-04 14:27 | 49.86144 | 6.07982 | 12331 ft | 282 kts | 153° |
| 2026-05-04 14:27 | 49.84434 | 6.09496 | 11924 ft | 281 kts | 153° |
| 2026-05-04 14:27 | 49.82748 | 6.10996 | 11534 ft | 280 kts | 153° |
| 2026-05-04 14:27 | 49.81066 | 6.12501 | 11145 ft | 278 kts | 153° |
| 2026-05-04 14:28 | 49.79319 | 6.13699 | 10760 ft | 273 kts | 169° |
| 2026-05-04 14:28 | 49.77453 | 6.13687 | 10400 ft | 269 kts | 194° |
| 2026-05-04 14:28 | 49.75807 | 6.12352 | 10019 ft | 270 kts | 220° |
| 2026-05-04 14:28 | 49.74686 | 6.10020 | 9630 ft | 274 kts | 238° |
| 2026-05-04 14:29 | 49.73139 | 6.04608 | 8884 ft | 273 kts | 243° |
| 2026-05-04 14:29 | 49.71699 | 5.99189 | 8127 ft | 271 kts | 243° |
| 2026-05-04 14:30 | 49.70995 | 5.96530 | 7712 ft | 266 kts | 243° |
| 2026-05-04 14:30 | 49.70308 | 5.93907 | 7287 ft | 258 kts | 243° |
| 2026-05-04 14:30 | 49.68981 | 5.88805 | 6313 ft | 251 kts | 243° |
| 2026-05-04 14:31 | 49.68333 | 5.86314 | 5936 ft | 248 kts | 243° |
| 2026-05-04 14:31 | 49.66311 | 5.82300 | 5051 ft | 238 kts | 200° |
| 2026-05-04 14:32 | 49.63211 | 5.82730 | 4298 ft | 229 kts | 154° |
| 2026-05-04 14:32 | 49.61808 | 5.83921 | 3900 ft | 231 kts | 153° |
| 2026-05-04 14:32 | 49.60431 | 5.85144 | 3608 ft | 228 kts | 152° |
| 2026-05-04 14:32 | 49.59060 | 5.86351 | 3436 ft | 222 kts | 153° |
| 2026-05-04 14:33 | 49.57724 | 5.87517 | 3270 ft | 215 kts | 153° |
| 2026-05-04 14:33 | 49.56430 | 5.88637 | 3011 ft | 215 kts | 150° |
| 2026-05-04 14:33 | 49.55328 | 5.90222 | 2967 ft | 221 kts | 123° |
| 2026-05-04 14:33 | 49.54881 | 5.92537 | 2981 ft | 233 kts | 97° |
| 2026-05-04 14:34 | 49.54838 | 5.95017 | 2968 ft | 231 kts | 93° |
| 2026-05-04 14:34 | 49.54852 | 5.97516 | 2975 ft | 232 kts | 93° |
| 2026-05-04 14:34 | 49.54935 | 5.99985 | 2970 ft | 234 kts | 83° |
| 2026-05-04 14:34 | 49.55486 | 6.02403 | 2973 ft | 240 kts | 63° |
| 2026-05-04 14:35 | 49.56390 | 6.04520 | 2970 ft | 230 kts | 58° |
| 2026-05-04 14:35 | 49.57230 | 6.06559 | 2968 ft | 215 kts | 63° |
| 2026-05-04 14:35 | 49.57929 | 6.08556 | 2700 ft | 207 kts | 64° |
| 2026-05-04 14:35 | 49.58612 | 6.10409 | 2386 ft | 193 kts | 61° |
| 2026-05-04 14:36 | 49.59268 | 6.12101 | 2139 ft | 177 kts | 62° |
| 2026-05-04 14:36 | 49.59845 | 6.13669 | 1910 ft | 159 kts | 63° |
| 2026-05-04 14:36 | 49.60382 | 6.15109 | 1711 ft | 156 kts | 62° |
| 2026-05-04 14:36 | 49.60911 | 6.16513 | 1502 ft | 148 kts | 62° |
| 2026-05-04 14:37 | 49.61424 | 6.17895 | 1309 ft | 144 kts | 62° |
| 2026-05-04 14:37 | 49.61912 | 6.19182 | 1167 ft | 132 kts | 61° |
| 2026-05-04 14:37 | 49.62269 | 6.20145 | 1211 ft | 70 kts | 61° |
| 2026-05-04 14:37 | 49.62441 | 6.20604 | 1222 ft | 37 kts | 58° |
| 2026-05-04 14:38 | 49.62557 | 6.20916 | 1225 ft | 29 kts | 58° |
| 2026-05-04 14:38 | 49.62701 | 6.21125 | 1226 ft | 28 kts | 37° |
| 2026-05-04 14:38 | 49.62838 | 6.21269 | 1227 ft | 22 kts | 29° |
| 2026-05-04 14:38 | 49.62979 | 6.21361 | 1229 ft | 20 kts | 33° |
| 2026-05-04 14:39 | 49.63050 | 6.21561 | 1226 ft | 21 kts | 65° |
| 2026-05-04 14:39 | 49.63106 | 6.21739 | 1222 ft | 13 kts | 60° |
| 2026-05-04 14:39 | 49.63164 | 6.21753 | 1224 ft | 4 kts | 336° |
| 2026-05-04 14:40 | 49.63192 | 6.21781 | 1225 ft | 3 kts | 53° |
| 2026-05-04 14:40 | 49.63201 | 6.21801 | 1224 ft | 0 kts | 58° |